Alton, Iowa
Current Conditions -  °F | °C
As of 7:35 PM on Monday 24 Nov 2014 (Local Time) from KORC Reporting Station
Clear Clear  
Wind Chill:   Ceiling: Unl
Heat Index: 23°   Visibility: 10mi
Dew Point: 16°   Wind: 17mph
Humidity: 74%   Direction: 310°NW
Pressure: 29.94"   Gusts: 22mph
Location:  42.99°N, 96.01°W
Report Text: KORC 250135Z AUTO 31015G19KT 10SM CLR M05/M09 A2994 RMK AO2
Loading
Personal Weather Stations






























Interactive Weather Map New forecast layout! Learn more

10-Day Weather Forecast

Advertisements
Track Severe Weather on mobile